createdAt,value
2023-04-02T00:01:47.167Z,10.52
2023-04-02T00:04:16.542Z,10.50
2023-04-02T00:06:46.443Z,10.70
2023-04-02T00:09:13.484Z,10.68
2023-04-02T00:11:49.909Z,10.45
2023-04-02T00:14:30.088Z,10.53
2023-04-02T00:16:59.999Z,10.60
2023-04-02T00:19:49.142Z,10.55
2023-04-02T00:22:22.512Z,10.47
2023-04-02T00:24:55.121Z,10.50
2023-04-02T00:27:23.112Z,10.40
2023-04-02T00:29:53.381Z,10.36
2023-04-02T00:32:27.818Z,10.38
2023-04-02T00:34:56.219Z,10.33
2023-04-02T00:37:28.378Z,10.42
2023-04-02T00:40:02.292Z,10.38
2023-04-02T00:42:31.716Z,10.01
2023-04-02T00:45:00.066Z,10.17
2023-04-02T00:47:32.025Z,10.32
2023-04-02T00:50:21.088Z,10.37
2023-04-02T00:52:52.536Z,10.32
2023-04-02T00:55:28.125Z,10.24
2023-04-02T00:57:57.970Z,10.36
2023-04-02T01:00:36.309Z,10.46
2023-04-02T01:03:13.268Z,10.46
2023-04-02T01:05:42.641Z,10.28
2023-04-02T01:08:23.787Z,10.32
2023-04-02T01:10:53.750Z,10.21
2023-04-02T01:13:23.964Z,10.16
2023-04-02T01:16:05.618Z,9.82
2023-04-02T01:18:36.965Z,10.14
2023-04-02T01:21:22.448Z,10.05
2023-04-02T01:24:06.167Z,10.05
2023-04-02T01:26:37.049Z,10.02
2023-04-02T01:29:14.312Z,9.84
2023-04-02T01:31:42.498Z,9.76
2023-04-02T01:34:13.754Z,9.91
2023-04-02T01:37:02.129Z,9.89
2023-04-02T01:39:51.324Z,9.92
2023-04-02T01:42:35.837Z,9.83
2023-04-02T01:45:08.640Z,9.81
2023-04-02T01:47:36.074Z,9.86
2023-04-02T01:50:24.080Z,9.96
2023-04-02T01:52:55.782Z,10.04
2023-04-02T01:55:42.440Z,10.07
2023-04-02T01:58:12.849Z,10.21
2023-04-02T02:00:57.174Z,10.29
2023-04-02T02:03:24.956Z,10.38
2023-04-02T02:05:52.735Z,10.52
2023-04-02T02:08:38.421Z,10.58
2023-04-02T02:11:07.872Z,10.51
2023-04-02T02:13:35.060Z,10.42
2023-04-02T02:16:04.431Z,10.34
2023-04-02T02:18:32.554Z,10.36
2023-04-02T02:21:04.144Z,10.42
2023-04-02T02:23:32.578Z,10.38
2023-04-02T02:25:59.982Z,10.33
2023-04-02T02:28:34.227Z,10.43
2023-04-02T02:31:13.037Z,10.46
2023-04-02T02:33:46.757Z,10.41
2023-04-02T02:36:26.252Z,10.42
2023-04-02T02:39:05.291Z,10.43
2023-04-02T02:42:01.273Z,10.48
2023-04-02T02:44:35.078Z,10.52
2023-04-02T02:47:26.828Z,10.49
2023-04-02T02:49:58.982Z,10.11
2023-04-02T02:52:37.400Z,10.21
2023-04-02T02:55:18.474Z,9.86
2023-04-02T02:58:16.330Z,9.87
2023-04-02T03:00:54.655Z,9.88
2023-04-02T03:03:27.654Z,9.78
2023-04-02T03:06:03.703Z,10.03
2023-04-02T03:08:58.209Z,10.06
2023-04-02T03:11:56.428Z,10.12
2023-04-02T03:14:34.217Z,10.13
2023-04-02T03:17:20.525Z,9.93
2023-04-02T03:20:33.428Z,10.11
2023-04-02T03:23:22.671Z,10.29
2023-04-02T03:26:31.858Z,10.26
2023-04-02T03:29:19.609Z,10.26
2023-04-02T03:32:16.591Z,10.27
2023-04-02T03:34:54.580Z,10.16
2023-04-02T03:37:51.245Z,9.82
2023-04-02T03:40:27.248Z,9.63
2023-04-02T03:43:06.578Z,9.69
2023-04-02T03:45:41.392Z,9.57
2023-04-02T03:48:24.546Z,9.56
2023-04-02T03:50:58.406Z,9.81
2023-04-02T03:53:27.940Z,9.91
2023-04-02T03:55:57.181Z,9.86
2023-04-02T03:58:41.291Z,9.78
2023-04-02T04:01:12.647Z,9.69
2023-04-02T04:03:51.173Z,9.90
2023-04-02T04:06:21.457Z,9.93
2023-04-02T04:08:58.460Z,9.71
2023-04-02T04:11:35.881Z,9.82
2023-04-02T04:14:17.232Z,9.68
2023-04-02T04:17:15.664Z,9.71
2023-04-02T04:19:55.112Z,9.33
2023-04-02T04:22:32.012Z,9.57
2023-04-02T04:25:35.220Z,9.39
2023-04-02T04:28:38.625Z,9.36
2023-04-02T04:31:27.142Z,9.62
2023-04-02T04:34:05.272Z,9.65
2023-04-02T04:36:54.629Z,9.63
2023-04-02T04:39:50.677Z,9.59
2023-04-02T04:42:28.764Z,9.56
2023-04-02T04:45:31.284Z,9.55
2023-04-02T04:48:04.871Z,9.57
2023-04-02T04:51:01.564Z,9.63
2023-04-02T04:53:30.472Z,9.56
2023-04-02T04:56:17.991Z,9.17
2023-04-02T04:59:29.685Z,9.71
2023-04-02T05:02:13.203Z,9.71
2023-04-02T05:04:43.716Z,9.82
2023-04-02T05:07:43.364Z,9.91
2023-04-02T05:10:25.466Z,9.96
2023-04-02T05:13:11.949Z,10.03
2023-04-02T05:16:02.080Z,10.06
2023-04-02T05:18:40.109Z,10.21
2023-04-02T05:21:18.258Z,10.28
2023-04-02T05:24:32.087Z,10.44
2023-04-02T05:27:05.673Z,10.47
2023-04-02T05:29:38.155Z,10.57
2023-04-02T05:32:14.150Z,10.73
2023-04-02T05:34:46.155Z,10.54
2023-04-02T05:37:21.391Z,10.70
2023-04-02T05:39:56.667Z,10.97
2023-04-02T05:42:28.436Z,11.02
2023-04-02T05:45:28.869Z,11.17
2023-04-02T05:48:02.682Z,11.22
2023-04-02T05:50:43.158Z,11.32
2023-04-02T05:53:22.938Z,11.44
2023-04-02T05:56:15.531Z,11.55
2023-04-02T05:58:59.535Z,11.66
2023-04-02T06:01:38.215Z,11.74
2023-04-02T06:04:21.082Z,11.64
2023-04-02T06:07:14.256Z,11.81
2023-04-02T06:09:52.045Z,12.04
2023-04-02T06:12:42.045Z,12.10
2023-04-02T06:15:17.443Z,12.28
2023-04-02T06:18:00.004Z,12.46
2023-04-02T06:20:28.354Z,12.51
2023-04-02T06:23:12.860Z,12.57
2023-04-02T06:25:45.110Z,12.65
2023-04-02T06:28:21.467Z,12.70
2023-04-02T06:30:59.754Z,12.71
2023-04-02T06:33:27.768Z,12.81
2023-04-02T06:35:56.300Z,12.87
2023-04-02T06:38:31.558Z,12.64
2023-04-02T06:41:15.788Z,13.05
2023-04-02T06:44:06.793Z,13.15
2023-04-02T06:46:52.511Z,13.08
2023-04-02T06:49:37.456Z,13.22
2023-04-02T06:52:15.666Z,13.46
2023-04-02T06:54:43.198Z,13.59
2023-04-02T06:57:13.533Z,13.42
2023-04-02T06:59:43.636Z,13.65
2023-04-02T07:02:31.337Z,13.71
2023-04-02T07:05:09.365Z,13.66
2023-04-02T07:07:40.425Z,13.69
2023-04-02T07:10:11.733Z,13.85
2023-04-02T07:12:38.960Z,13.96
2023-04-02T07:15:06.873Z,14.03
2023-04-02T07:17:34.108Z,13.91
2023-04-02T07:20:01.309Z,14.15
2023-04-02T07:22:28.683Z,14.28
2023-04-02T07:24:59.918Z,13.99
2023-04-02T07:27:28.259Z,13.99
2023-04-02T07:29:55.471Z,14.29
2023-04-02T07:32:22.559Z,14.55
2023-04-02T07:34:49.816Z,14.71
2023-04-02T07:37:17.242Z,14.76
2023-04-02T07:39:44.374Z,15.03
2023-04-02T07:42:11.489Z,14.86
2023-04-02T07:44:38.678Z,14.61
2023-04-02T07:47:06.125Z,15.07
2023-04-02T07:49:33.303Z,15.06
2023-04-02T07:52:00.931Z,15.14
2023-04-02T07:54:28.442Z,14.94
2023-04-02T07:56:55.938Z,15.15
2023-04-02T07:59:23.239Z,15.21
2023-04-02T08:01:52.798Z,15.26
2023-04-02T08:04:22.923Z,15.25
2023-04-02T08:06:50.825Z,15.14
2023-04-02T08:09:18.214Z,15.19
2023-04-02T08:11:46.714Z,15.25
2023-04-02T08:14:14.589Z,15.32
2023-04-02T08:16:49.432Z,15.35
2023-04-02T08:19:17.108Z,15.36
2023-04-02T08:21:44.473Z,15.48
2023-04-02T08:24:11.698Z,14.87
2023-04-02T08:26:38.722Z,15.56
2023-04-02T08:29:06.089Z,15.60
2023-04-02T08:31:33.247Z,15.67
2023-04-02T08:34:01.682Z,15.55
2023-04-02T08:36:38.083Z,15.77
2023-04-02T08:39:11.040Z,15.81
2023-04-02T08:41:45.185Z,15.98
2023-04-02T08:45:10.864Z,15.92
2023-04-02T08:47:44.444Z,16.21
2023-04-02T08:50:19.113Z,16.23
2023-04-02T08:52:46.395Z,16.30
2023-04-02T08:55:26.069Z,16.21
2023-04-02T08:58:09.064Z,16.49
2023-04-02T09:00:45.807Z,16.59
2023-04-02T09:03:27.587Z,16.55
2023-04-02T09:05:56.243Z,16.72
2023-04-02T09:08:29.689Z,16.55
2023-04-02T09:11:03.448Z,16.86
2023-04-02T09:13:33.210Z,16.98
2023-04-02T09:16:16.488Z,17.04
2023-04-02T09:18:45.443Z,16.99
2023-04-02T09:21:22.048Z,17.06
2023-04-02T09:23:50.742Z,16.91
2023-04-02T09:26:27.355Z,17.07
2023-04-02T09:29:13.832Z,17.48
2023-04-02T09:31:56.568Z,17.55
2023-04-02T09:34:37.876Z,17.13
2023-04-02T09:37:16.490Z,17.72
2023-04-02T09:39:45.904Z,17.80
2023-04-02T09:42:35.395Z,17.05
2023-04-02T09:45:25.900Z,17.81
2023-04-02T09:47:58.277Z,18.14
2023-04-02T09:50:30.501Z,18.16
2023-04-02T09:53:00.015Z,18.28
2023-04-02T09:55:31.412Z,17.68
2023-04-02T09:58:28.599Z,18.29
2023-04-02T10:00:56.426Z,18.22
2023-04-02T10:03:29.389Z,17.20
2023-04-02T10:06:15.414Z,17.75
2023-04-02T10:08:46.042Z,18.11
2023-04-02T10:11:43.638Z,17.87
2023-04-02T10:14:22.044Z,18.13
2023-04-02T10:16:55.362Z,18.50
2023-04-02T10:19:33.093Z,18.48
2023-04-02T10:22:18.090Z,17.69
2023-04-02T10:24:46.263Z,18.17
2023-04-02T10:27:22.682Z,18.27
2023-04-02T10:30:09.146Z,18.49
2023-04-02T10:32:57.940Z,18.66
2023-04-02T10:36:01.094Z,18.70
2023-04-02T10:38:42.717Z,18.82
2023-04-02T10:41:25.173Z,18.82
2023-04-02T10:44:19.436Z,18.76
2023-04-02T10:47:08.933Z,18.92
2023-04-02T10:49:48.280Z,18.99
2023-04-02T10:52:31.444Z,19.13
2023-04-02T10:55:05.140Z,19.19
2023-04-02T10:57:39.611Z,19.19
2023-04-02T11:00:18.925Z,19.17
2023-04-02T11:02:49.462Z,19.16
2023-04-02T11:05:23.822Z,19.21
2023-04-02T11:08:21.344Z,19.30
2023-04-02T11:11:18.728Z,19.55
2023-04-02T11:14:14.153Z,19.69
2023-04-02T11:16:44.577Z,19.88
2023-04-02T11:19:15.292Z,19.75
2023-04-02T11:22:06.771Z,19.58
2023-04-02T11:24:46.725Z,19.48
2023-04-02T11:27:34.075Z,19.36
2023-04-02T11:30:04.433Z,19.47
2023-04-02T11:32:43.101Z,19.51
2023-04-02T11:35:32.077Z,19.62
2023-04-02T11:38:09.734Z,19.70
2023-04-02T11:40:36.847Z,19.54
2023-04-02T11:43:45.987Z,19.51
2023-04-02T11:46:19.131Z,19.60
2023-04-02T11:48:46.898Z,19.44
2023-04-02T11:51:23.384Z,19.52
2023-04-02T11:53:53.958Z,19.40
2023-04-02T11:56:50.580Z,19.47
2023-04-02T11:59:33.959Z,19.27
2023-04-02T12:02:14.783Z,19.04
2023-04-02T12:04:48.038Z,19.16
2023-04-02T12:07:52.515Z,19.06
2023-04-02T12:10:22.687Z,18.98
2023-04-02T12:12:50.671Z,18.85
2023-04-02T12:15:45.143Z,18.92
2023-04-02T12:18:25.310Z,19.02
2023-04-02T12:20:57.720Z,19.11
2023-04-02T12:23:37.470Z,19.15
2023-04-02T12:26:24.488Z,19.26
2023-04-02T12:28:51.733Z,19.22
2023-04-02T12:31:25.204Z,19.40
2023-04-02T12:33:53.151Z,19.39
2023-04-02T12:36:22.888Z,19.44
2023-04-02T12:38:53.404Z,19.23
2023-04-02T12:41:27.574Z,19.52
2023-04-02T12:44:24.173Z,19.47
2023-04-02T12:46:52.535Z,19.42
2023-04-02T12:49:37.165Z,19.43
2023-04-02T12:52:16.840Z,19.29
2023-04-02T12:54:46.274Z,19.42
2023-04-02T12:57:40.828Z,19.19
2023-04-02T13:00:21.182Z,19.37
2023-04-02T13:03:07.051Z,19.36
2023-04-02T13:05:42.797Z,19.41
2023-04-02T13:08:19.592Z,19.13
2023-04-02T13:11:01.942Z,19.37
2023-04-02T13:13:40.805Z,19.42
2023-04-02T13:16:32.763Z,19.40
2023-04-02T13:19:23.937Z,19.27
2023-04-02T13:21:52.737Z,19.04
2023-04-02T13:24:25.940Z,19.31
2023-04-02T13:27:01.173Z,19.34
2023-04-02T13:29:33.546Z,19.36
2023-04-02T13:32:06.062Z,19.32
2023-04-02T13:34:33.304Z,19.21
2023-04-02T13:37:00.899Z,19.40
2023-04-02T13:39:30.397Z,19.36
2023-04-02T13:42:03.026Z,19.28
2023-04-02T13:44:37.579Z,18.90
2023-04-02T13:47:04.717Z,19.17
2023-04-02T13:49:32.116Z,18.87
2023-04-02T13:52:05.125Z,19.07
2023-04-02T13:54:43.653Z,19.29
2023-04-02T13:57:11.704Z,19.32
2023-04-02T13:59:38.936Z,19.38
2023-04-02T14:02:17.257Z,19.45
2023-04-02T14:04:55.821Z,19.47
2023-04-02T14:07:41.916Z,19.46
2023-04-02T14:10:33.820Z,19.36
2023-04-02T14:13:13.180Z,19.17
2023-04-02T14:15:52.642Z,18.83
2023-04-02T14:18:44.707Z,19.09
2023-04-02T14:21:35.050Z,19.09
2023-04-02T14:24:26.583Z,19.07
2023-04-02T14:26:59.893Z,19.12
2023-04-02T14:29:35.977Z,19.16
2023-04-02T14:32:09.337Z,19.11
2023-04-02T14:34:50.498Z,18.99
2023-04-02T14:37:42.095Z,18.89
2023-04-02T14:40:32.138Z,18.81
2023-04-02T14:43:24.858Z,18.63
2023-04-02T14:45:59.502Z,18.51
2023-04-02T14:48:45.256Z,18.44
2023-04-02T14:51:35.622Z,18.44
2023-04-02T14:54:21.781Z,18.28
2023-04-02T14:57:00.786Z,18.13
2023-04-02T14:59:52.935Z,17.99
2023-04-02T15:02:43.604Z,18.16
2023-04-02T15:05:41.790Z,18.16
2023-04-02T15:08:39.410Z,18.16
2023-04-02T15:11:15.578Z,18.12
2023-04-02T15:14:02.436Z,18.03
2023-04-02T15:16:29.942Z,17.89
2023-04-02T15:18:58.819Z,17.81
2023-04-02T15:21:55.863Z,17.85
2023-04-02T15:24:37.764Z,17.83
2023-04-02T15:27:25.166Z,17.69
2023-04-02T15:29:55.872Z,17.56
2023-04-02T15:32:37.946Z,17.48
2023-04-02T15:35:31.667Z,17.47
2023-04-02T15:38:10.722Z,17.37
2023-04-02T15:41:10.153Z,17.34
2023-04-02T15:43:48.461Z,17.12
2023-04-02T15:46:24.548Z,17.41
2023-04-02T15:49:05.680Z,17.23
2023-04-02T15:51:41.873Z,17.46
2023-04-02T15:54:30.454Z,17.39
2023-04-02T15:57:22.627Z,17.40
2023-04-02T15:59:57.977Z,17.45
2023-04-02T16:03:03.012Z,17.42
2023-04-02T16:05:58.165Z,17.41
2023-04-02T16:08:58.796Z,17.34
2023-04-02T16:11:27.446Z,17.32
2023-04-02T16:14:05.475Z,17.25
2023-04-02T16:16:36.645Z,17.19
2023-04-02T16:19:16.112Z,17.16
2023-04-02T16:22:10.839Z,17.13
2023-04-02T16:24:38.917Z,17.05
2023-04-02T16:27:15.734Z,17.04
2023-04-02T16:29:55.018Z,16.92
2023-04-02T16:32:51.139Z,16.95
2023-04-02T16:35:42.750Z,16.84
2023-04-02T16:38:19.902Z,16.80
2023-04-02T16:41:25.272Z,16.77
2023-04-02T16:44:11.336Z,16.69
2023-04-02T16:46:43.912Z,16.55
2023-04-02T16:49:41.550Z,16.57
2023-04-02T16:52:15.164Z,16.45
2023-04-02T16:55:07.588Z,16.47
2023-04-02T16:58:04.156Z,16.42
2023-04-02T17:00:45.904Z,16.06
2023-04-02T17:03:55.059Z,16.23
2023-04-02T17:06:31.367Z,16.12
2023-04-02T17:09:13.704Z,16.07
2023-04-02T17:11:49.933Z,15.82
2023-04-02T17:14:39.184Z,16.02
2023-04-02T17:17:08.912Z,15.95
2023-04-02T17:19:36.196Z,15.91
2023-04-02T17:22:05.226Z,15.94
2023-04-02T17:24:42.882Z,15.84
2023-04-02T17:27:52.116Z,15.75
2023-04-02T17:30:29.599Z,15.73
2023-04-02T17:32:56.693Z,15.88
2023-04-02T17:35:45.879Z,15.94
2023-04-02T17:38:20.010Z,15.88
2023-04-02T17:41:13.098Z,15.66
2023-04-02T17:44:27.074Z,15.66
2023-04-02T17:47:32.743Z,15.63
2023-04-02T17:50:44.640Z,15.54
2023-04-02T17:53:38.810Z,15.52
2023-04-02T17:56:24.451Z,15.46
2023-04-02T17:59:06.979Z,15.42
2023-04-02T18:02:02.199Z,15.30
2023-04-02T18:04:52.743Z,15.32
2023-04-02T18:07:48.816Z,15.14
2023-04-02T18:10:23.546Z,15.27
2023-04-02T18:13:07.169Z,15.20
2023-04-02T18:15:50.941Z,15.12
2023-04-02T18:18:49.703Z,15.11
2023-04-02T18:21:58.947Z,14.99
2023-04-02T18:24:30.236Z,14.12
2023-04-02T18:27:29.627Z,14.99
2023-04-02T18:30:29.892Z,14.92
2023-04-02T18:33:00.001Z,14.94
2023-04-02T18:36:06.303Z,14.94
2023-04-02T18:38:52.135Z,14.99
2023-04-02T18:41:19.208Z,14.95
2023-04-02T18:44:02.929Z,14.91
2023-04-02T18:46:36.054Z,14.85
2023-04-02T18:49:19.659Z,14.53
2023-04-02T18:51:52.380Z,14.59
2023-04-02T18:54:32.989Z,14.62
2023-04-02T18:57:03.059Z,14.58
2023-04-02T18:59:48.964Z,14.60
2023-04-02T19:02:45.063Z,14.59
2023-04-02T19:05:21.621Z,14.53
2023-04-02T19:07:52.678Z,14.51
2023-04-02T19:10:38.632Z,14.55
2023-04-02T19:13:15.495Z,14.46
2023-04-02T19:16:10.581Z,14.51
2023-04-02T19:19:00.894Z,14.46
2023-04-02T19:21:46.647Z,14.32
2023-04-02T19:24:49.320Z,14.24
2023-04-02T19:27:48.075Z,14.24
2023-04-02T19:30:37.970Z,14.09
2023-04-02T19:33:16.892Z,14.24
2023-04-02T19:36:05.051Z,14.23
2023-04-02T19:39:09.753Z,14.26
2023-04-02T19:41:51.922Z,14.20
2023-04-02T19:44:20.106Z,13.82
2023-04-02T19:46:47.731Z,13.91
2023-04-02T19:49:22.848Z,14.00
2023-04-02T19:51:51.045Z,14.12
2023-04-02T19:54:19.086Z,14.10
2023-04-02T19:56:46.551Z,13.95
2023-04-02T20:01:44.005Z,13.96
2023-04-02T20:04:11.336Z,13.75
2023-04-02T20:06:38.833Z,13.64
2023-04-02T20:09:07.619Z,13.63
2023-04-02T20:11:36.880Z,13.92
2023-04-02T20:14:05.428Z,13.92
2023-04-02T20:16:33.963Z,13.91
2023-04-02T20:19:01.277Z,13.92
2023-04-02T20:21:29.621Z,13.65
2023-04-02T20:23:56.761Z,13.81
2023-04-02T20:26:23.888Z,13.87
2023-04-02T20:28:51.008Z,13.66
2023-04-02T20:31:19.253Z,13.81
2023-04-02T20:33:46.779Z,13.65
2023-04-02T20:36:16.348Z,13.71
2023-04-02T20:38:45.464Z,13.49
2023-04-02T20:41:13.054Z,13.60
2023-04-02T20:43:42.636Z,13.53
2023-04-02T20:46:12.619Z,13.49
2023-04-02T20:48:40.516Z,13.27
2023-04-02T20:51:09.763Z,13.33
2023-04-02T20:53:38.057Z,13.19
2023-04-02T20:56:24.747Z,13.22
2023-04-02T20:58:52.101Z,13.19
2023-04-02T21:01:28.067Z,13.02
2023-04-02T21:04:04.842Z,13.05
2023-04-02T21:06:36.534Z,13.04
2023-04-02T21:09:08.345Z,12.97
2023-04-02T21:11:36.978Z,12.91
2023-04-02T21:14:04.613Z,12.94
2023-04-02T21:16:32.453Z,12.97
2023-04-02T21:19:02.932Z,13.00
2023-04-02T21:21:30.753Z,13.06
2023-04-02T21:24:03.943Z,12.94
2023-04-02T21:26:34.743Z,12.86
2023-04-02T21:29:02.883Z,12.71
2023-04-02T21:31:33.708Z,12.57
2023-04-02T21:34:01.068Z,12.53
2023-04-02T21:36:31.300Z,12.65
2023-04-02T21:39:00.934Z,12.40
2023-04-02T21:41:31.488Z,12.61
2023-04-02T21:44:00.327Z,12.58
2023-04-02T21:46:30.721Z,12.16
2023-04-02T21:48:59.535Z,12.44
2023-04-02T21:51:32.355Z,12.22
2023-04-02T21:54:00.482Z,12.18
2023-04-02T21:56:30.097Z,12.21
2023-04-02T21:58:58.701Z,12.29
2023-04-02T22:01:28.093Z,12.34
2023-04-02T22:03:57.240Z,12.38
2023-04-02T22:06:26.427Z,12.19
2023-04-02T22:09:05.380Z,12.23
2023-04-02T22:11:39.021Z,12.31
2023-04-02T22:14:06.199Z,12.48
2023-04-02T22:16:35.135Z,12.49
2023-04-02T22:19:08.193Z,12.44
2023-04-02T22:21:36.732Z,12.39
2023-04-02T22:24:07.298Z,12.12
2023-04-02T22:26:35.191Z,12.14
2023-04-02T22:29:02.814Z,11.88
2023-04-02T22:31:31.749Z,11.65
2023-04-02T22:33:59.640Z,11.49
2023-04-02T22:36:28.625Z,11.38
2023-04-02T22:38:57.505Z,11.27
2023-04-02T22:41:27.472Z,11.54
2023-04-02T22:43:59.663Z,11.58
2023-04-02T22:46:28.022Z,11.55
2023-04-02T22:48:56.438Z,11.64
2023-04-02T22:51:25.013Z,11.62
2023-04-02T22:53:54.588Z,11.63
2023-04-02T22:56:24.977Z,11.47
2023-04-02T22:58:52.145Z,11.46
2023-04-02T23:01:25.974Z,11.13
2023-04-02T23:03:54.842Z,11.44
2023-04-02T23:06:23.152Z,11.45
2023-04-02T23:08:51.056Z,11.59
2023-04-02T23:11:23.816Z,11.51
2023-04-02T23:13:53.382Z,11.70
2023-04-02T23:16:21.415Z,11.37
2023-04-02T23:18:49.132Z,11.49
2023-04-02T23:21:17.655Z,11.83
2023-04-02T23:23:46.281Z,11.87
2023-04-02T23:26:18.439Z,11.88
2023-04-02T23:28:46.034Z,11.88
2023-04-02T23:31:20.074Z,11.91
2023-04-02T23:33:48.767Z,11.66
2023-04-02T23:36:21.573Z,11.90
2023-04-02T23:38:48.658Z,11.83
2023-04-02T23:41:16.828Z,11.77
2023-04-02T23:43:44.367Z,11.74
2023-04-02T23:46:11.748Z,11.91
2023-04-02T23:48:39.232Z,11.92
2023-04-02T23:51:07.022Z,11.73
2023-04-02T23:53:34.972Z,11.85
2023-04-02T23:56:02.309Z,11.78
2023-04-02T23:58:29.678Z,11.75
